createdAt,value
2018-10-05T00:01:00.950Z,6.30
2018-10-05T00:03:29.222Z,5.95
2018-10-05T00:05:58.958Z,5.63
2018-10-05T00:08:30.450Z,6.17
2018-10-05T00:10:58.916Z,6.30
2018-10-05T00:13:29.297Z,6.43
2018-10-05T00:15:57.605Z,6.03
2018-10-05T00:18:25.890Z,5.58
2018-10-05T00:20:54.258Z,5.50
2018-10-05T00:23:22.605Z,5.33
2018-10-05T00:25:50.941Z,4.70
2018-10-05T00:28:19.270Z,5.33
2018-10-05T00:30:47.816Z,5.08
2018-10-05T00:33:16.073Z,5.30
2018-10-05T00:35:44.310Z,5.60
2018-10-05T00:38:12.582Z,5.53
2018-10-05T00:40:40.889Z,5.03
2018-10-05T00:43:09.176Z,5.45
2018-10-05T00:45:37.451Z,4.90
2018-10-05T00:48:05.754Z,5.43
2018-10-05T00:50:34.043Z,4.53
2018-10-05T00:53:05.294Z,4.43
2018-10-05T00:55:33.556Z,4.63
2018-10-05T00:58:01.924Z,4.30
2018-10-05T01:00:30.323Z,4.03
2018-10-05T01:02:58.574Z,3.60
2018-10-05T01:05:27.077Z,3.62
2018-10-05T01:07:55.310Z,3.93
2018-10-05T01:15:17.029Z,4.10
2018-10-05T01:17:45.268Z,4.17
2018-10-05T01:20:13.512Z,4.50
2018-10-05T01:22:41.802Z,4.43
2018-10-05T01:25:10.134Z,4.00
2018-10-05T01:32:37.851Z,4.77
2018-10-05T01:35:06.107Z,4.60
2018-10-05T01:37:34.298Z,4.30
2018-10-05T01:40:02.878Z,4.83
2018-10-05T01:42:31.714Z,4.77
2018-10-05T01:45:00.278Z,4.12
2018-10-05T01:47:28.852Z,4.80
2018-10-05T01:49:57.450Z,5.60
2018-10-05T01:52:25.681Z,5.00
2018-10-05T01:54:54.027Z,5.13
2018-10-05T01:57:22.260Z,4.13
2018-10-05T01:59:50.525Z,4.63
2018-10-05T02:02:18.798Z,5.07
2018-10-05T02:04:47.118Z,4.97
2018-10-05T02:07:15.488Z,5.83
2018-10-05T02:09:43.814Z,4.70
2018-10-05T02:12:13.433Z,4.85
2018-10-05T02:14:41.677Z,4.83
2018-10-05T02:17:10.096Z,4.73
2018-10-05T02:19:38.429Z,5.37
2018-10-05T02:22:06.858Z,4.50
2018-10-05T02:24:35.137Z,4.92
2018-10-05T02:27:03.486Z,4.27
2018-10-05T02:29:31.749Z,4.80
2018-10-05T02:32:00.012Z,4.50
2018-10-05T02:34:28.286Z,4.50
2018-10-05T02:36:56.509Z,5.13
2018-10-05T02:39:24.826Z,4.50
2018-10-05T02:41:53.121Z,4.83
2018-10-05T02:44:21.466Z,5.13
2018-10-05T02:46:49.693Z,3.95
2018-10-05T02:49:17.961Z,4.57
2018-10-05T02:51:46.371Z,4.37
2018-10-05T02:54:14.685Z,4.10
2018-10-05T02:56:42.959Z,4.73
2018-10-05T02:59:11.201Z,3.93
2018-10-05T03:01:50.805Z,4.70
2018-10-05T03:04:19.061Z,4.30
2018-10-05T03:06:47.259Z,4.50
2018-10-05T03:09:15.494Z,4.67
2018-10-05T03:11:43.774Z,4.27
2018-10-05T03:14:12.114Z,4.70
2018-10-05T03:16:40.405Z,4.23
2018-10-05T03:24:01.701Z,4.03
2018-10-05T03:26:29.970Z,4.33
2018-10-05T03:28:58.601Z,4.93
2018-10-05T03:31:26.905Z,3.77
2018-10-05T03:33:55.214Z,4.27
2018-10-05T03:36:24.365Z,3.50
2018-10-05T03:38:52.701Z,4.20
2018-10-05T03:41:21.083Z,3.60
2018-10-05T03:43:49.406Z,3.97
2018-10-05T03:46:17.737Z,3.83
2018-10-05T03:48:46.035Z,4.37
2018-10-05T03:51:14.282Z,4.30
2018-10-05T03:53:42.894Z,4.08
2018-10-05T03:56:11.154Z,4.60
2018-10-05T03:58:39.350Z,4.20
2018-10-05T04:01:07.650Z,4.03
2018-10-05T04:03:35.959Z,5.13
2018-10-05T04:06:04.457Z,3.80
2018-10-05T04:08:32.761Z,4.83
2018-10-05T04:11:01.035Z,4.50
2018-10-05T04:13:29.385Z,4.47
2018-10-05T04:15:58.691Z,4.97
2018-10-05T04:18:27.046Z,5.07
2018-10-05T04:20:55.337Z,4.73
2018-10-05T04:23:23.695Z,5.97
2018-10-05T04:25:51.997Z,5.03
2018-10-05T04:28:20.307Z,4.30
2018-10-05T04:30:48.759Z,4.30
2018-10-05T04:33:17.014Z,4.10
2018-10-05T04:35:45.297Z,4.00
2018-10-05T04:38:13.609Z,3.80
2018-10-05T04:40:42.129Z,4.70
2018-10-05T04:43:10.599Z,3.90
2018-10-05T04:45:38.887Z,2.87
2018-10-05T04:48:07.083Z,3.37
2018-10-05T04:50:35.390Z,3.40
2018-10-05T04:53:03.621Z,3.10
2018-10-05T04:57:53.838Z,3.33
2018-10-05T05:00:22.058Z,3.17
2018-10-05T05:02:50.306Z,3.00
2018-10-05T05:05:18.546Z,3.93
2018-10-05T05:07:46.822Z,3.87
2018-10-05T05:10:15.113Z,4.10
2018-10-05T05:12:43.473Z,3.77
2018-10-05T05:15:11.706Z,3.40
2018-10-05T05:17:40.223Z,4.37
2018-10-05T05:20:08.511Z,3.72
2018-10-05T05:22:36.874Z,3.43
2018-10-05T05:25:05.215Z,4.73
2018-10-05T05:27:33.521Z,4.37
2018-10-05T05:30:03.523Z,4.37
2018-10-05T05:32:31.717Z,5.07
2018-10-05T05:34:59.978Z,4.70
2018-10-05T05:37:28.365Z,4.37
2018-10-05T05:39:56.637Z,4.70
2018-10-05T05:42:25.178Z,4.40
2018-10-05T05:44:53.439Z,4.90
2018-10-05T05:47:21.817Z,4.65
2018-10-05T05:49:50.186Z,5.30
2018-10-05T05:52:19.330Z,5.20
2018-10-05T05:54:47.727Z,4.20
2018-10-05T05:57:16.006Z,5.17
2018-10-05T05:59:44.360Z,4.27
2018-10-05T06:02:18.982Z,4.27
2018-10-05T06:04:47.398Z,4.17
2018-10-05T06:07:16.004Z,4.60
2018-10-05T06:09:44.494Z,5.72
2018-10-05T06:12:12.994Z,4.87
2018-10-05T06:14:41.568Z,5.53
2018-10-05T06:17:10.090Z,4.57
2018-10-05T06:19:39.599Z,4.37
2018-10-05T06:22:08.079Z,4.57
2018-10-05T06:24:36.506Z,4.70
2018-10-05T06:27:05.110Z,4.72
2018-10-05T06:29:33.709Z,4.50
2018-10-05T06:32:02.119Z,4.78
2018-10-05T06:34:30.749Z,4.47
2018-10-05T06:36:59.320Z,5.28
2018-10-05T06:39:27.644Z,6.20
2018-10-05T06:41:56.090Z,5.10
2018-10-05T06:44:24.296Z,6.13
2018-10-05T06:46:52.605Z,5.50
2018-10-05T06:49:21.377Z,5.27
2018-10-05T06:51:49.678Z,6.03
2018-10-05T06:54:17.925Z,4.70
2018-10-05T06:56:46.172Z,5.40
2018-10-05T06:59:15.288Z,5.07
2018-10-05T07:01:43.551Z,5.50
2018-10-05T07:04:11.785Z,5.40
2018-10-05T07:06:40.081Z,4.70
2018-10-05T07:09:08.872Z,5.47
2018-10-05T07:11:37.353Z,5.40
2018-10-05T07:14:05.797Z,4.60
2018-10-05T07:16:34.288Z,4.30
2018-10-05T07:19:02.615Z,4.77
2018-10-05T07:21:30.960Z,4.43
2018-10-05T07:23:59.125Z,4.43
2018-10-05T07:26:27.522Z,4.07
2018-10-05T07:28:55.811Z,4.20
2018-10-05T07:31:24.017Z,4.20
2018-10-05T07:33:52.409Z,5.60
2018-10-05T07:36:20.599Z,4.17
2018-10-05T07:38:48.992Z,4.30
2018-10-05T07:41:17.246Z,3.97
2018-10-05T07:43:45.414Z,5.13
2018-10-05T07:46:13.617Z,3.57
2018-10-05T07:48:41.833Z,3.63
2018-10-05T07:51:10.381Z,3.83
2018-10-05T07:53:38.714Z,3.60
2018-10-05T07:57:56.701Z,3.67
2018-10-05T08:00:25.043Z,3.83
2018-10-05T08:02:53.253Z,3.23
2018-10-05T08:05:21.472Z,3.63
2018-10-05T08:07:49.700Z,3.33
2018-10-05T08:10:19.246Z,3.07
2018-10-05T08:12:47.502Z,3.03
2018-10-05T08:15:15.733Z,3.95
2018-10-05T08:17:43.968Z,3.72
2018-10-05T08:20:12.165Z,3.75
2018-10-05T08:22:40.421Z,4.20
2018-10-05T08:25:08.691Z,3.52
2018-10-05T08:27:37.157Z,4.37
2018-10-05T08:30:06.508Z,3.42
2018-10-05T08:32:36.474Z,3.27
2018-10-05T08:35:04.805Z,3.90
2018-10-05T08:37:33.025Z,3.77
2018-10-05T08:40:01.423Z,3.90
2018-10-05T08:42:29.797Z,3.70
2018-10-05T08:44:58.073Z,3.90
2018-10-05T08:47:26.317Z,4.45
2018-10-05T08:49:54.607Z,3.40
2018-10-05T08:52:23.202Z,3.47
2018-10-05T08:54:51.536Z,3.90
2018-10-05T08:57:19.801Z,3.52
2018-10-05T08:59:48.133Z,3.30
2018-10-05T09:02:16.505Z,3.62
2018-10-05T09:04:44.750Z,3.42
2018-10-05T09:07:12.951Z,3.22
2018-10-05T09:09:41.367Z,2.95
2018-10-05T09:12:10.506Z,3.17
2018-10-05T09:14:38.949Z,2.85
2018-10-05T09:17:07.284Z,2.70
2018-10-05T09:19:35.566Z,2.40
2018-10-05T09:22:05.973Z,2.35
2018-10-05T09:24:34.158Z,2.80
2018-10-05T09:27:02.465Z,2.58
2018-10-05T09:29:30.958Z,2.72
2018-10-05T09:31:59.743Z,2.50
2018-10-05T09:34:29.508Z,2.70
2018-10-05T09:36:57.791Z,2.87
2018-10-05T09:39:26.133Z,2.65
2018-10-05T09:41:54.336Z,2.60
2018-10-05T09:44:22.622Z,2.43
2018-10-05T09:46:50.909Z,2.60
2018-10-05T09:49:19.181Z,2.25
2018-10-05T09:51:47.691Z,2.50
2018-10-05T09:54:16.060Z,2.52
2018-10-05T09:56:44.273Z,2.50
2018-10-05T09:59:12.502Z,2.30
2018-10-05T10:01:47.185Z,2.45
2018-10-05T10:04:15.512Z,2.20
2018-10-05T10:06:43.940Z,2.55
2018-10-05T10:09:12.232Z,2.45
2018-10-05T10:11:40.439Z,2.77
2018-10-05T10:14:09.370Z,2.60
2018-10-05T10:16:37.583Z,2.95
2018-10-05T10:23:59.307Z,2.60
2018-10-05T10:26:27.617Z,2.37
2018-10-05T10:28:56.030Z,2.37
2018-10-05T10:31:24.438Z,2.22
2018-10-05T10:33:52.642Z,2.60
2018-10-05T10:36:21.882Z,1.87
2018-10-05T10:38:50.861Z,1.60
2018-10-05T10:41:19.261Z,1.70
2018-10-05T10:43:47.485Z,2.10
2018-10-05T10:46:15.703Z,1.67
2018-10-05T10:48:44.054Z,2.17
2018-10-05T10:51:12.328Z,1.60
2018-10-05T10:53:40.552Z,1.65
2018-10-05T10:56:09.029Z,1.32
2018-10-05T10:58:37.397Z,1.20
2018-10-05T11:01:06.105Z,1.55
2018-10-05T11:03:35.047Z,1.37
2018-10-05T11:06:03.321Z,1.50
2018-10-05T11:08:31.594Z,1.45
2018-10-05T11:10:59.837Z,1.40
2018-10-05T11:13:28.025Z,1.60
2018-10-05T11:15:56.231Z,1.42
2018-10-05T11:18:24.501Z,1.40
2018-10-05T11:20:52.702Z,1.40
2018-10-05T11:23:21.045Z,1.30
2018-10-05T11:25:49.305Z,1.47
2018-10-05T11:28:17.536Z,1.35
2018-10-05T11:30:45.766Z,1.62
2018-10-05T11:33:14.027Z,1.30
2018-10-05T11:35:42.236Z,1.55
2018-10-05T11:38:11.361Z,1.60
2018-10-05T11:40:39.684Z,1.80
2018-10-05T11:43:08.049Z,1.30
2018-10-05T11:45:36.329Z,1.30
2018-10-05T11:48:04.504Z,1.30
2018-10-05T11:50:32.737Z,1.40
2018-10-05T11:53:00.921Z,1.30
2018-10-05T11:55:29.246Z,1.50
2018-10-05T11:57:57.710Z,1.30
2018-10-05T12:00:25.887Z,1.30
2018-10-05T12:02:54.079Z,1.20
2018-10-05T12:05:22.506Z,1.00
2018-10-05T12:07:50.805Z,1.22
2018-10-05T12:10:19.369Z,1.20
2018-10-05T12:12:47.830Z,1.60
2018-10-05T12:15:16.187Z,1.30
2018-10-05T12:17:45.383Z,1.22
2018-10-05T12:20:13.657Z,1.22
2018-10-05T12:22:42.377Z,1.00
2018-10-05T12:25:10.641Z,1.27
2018-10-05T12:27:38.873Z,1.50
2018-10-05T12:30:07.148Z,1.60
2018-10-05T12:32:35.637Z,1.40
2018-10-05T12:35:04.408Z,1.20
2018-10-05T12:37:32.629Z,1.10
2018-10-05T12:44:54.673Z,1.40
2018-10-05T13:06:03.988Z,1.27
2018-10-05T13:08:32.860Z,1.40
2018-10-05T13:11:01.375Z,1.60
2018-10-05T13:13:30.028Z,1.60
2018-10-05T13:15:58.463Z,1.87
2018-10-05T13:18:27.019Z,1.12
2018-10-05T13:20:55.481Z,1.22
2018-10-05T13:23:23.949Z,1.30
2018-10-05T13:25:52.816Z,1.15
2018-10-05T13:28:21.280Z,1.20
2018-10-05T13:30:50.669Z,1.10
2018-10-05T13:33:19.199Z,1.45
2018-10-05T13:35:47.981Z,1.20
2018-10-05T13:38:16.513Z,1.25
2018-10-05T13:46:31.090Z,1.37
2018-10-05T13:49:00.674Z,1.30
2018-10-05T13:51:29.417Z,1.20
2018-10-05T13:53:57.800Z,1.32
2018-10-05T13:56:26.182Z,1.37
2018-10-05T13:58:54.736Z,1.50
2018-10-05T14:01:23.213Z,1.00
2018-10-05T14:03:52.098Z,1.00
2018-10-05T14:06:20.595Z,1.20
2018-10-05T14:08:49.012Z,1.45
2018-10-05T14:11:17.415Z,1.32
2018-10-05T14:13:46.208Z,1.07
2018-10-05T14:16:15.132Z,1.25
2018-10-05T14:18:43.948Z,1.20
2018-10-05T14:21:13.110Z,1.35
2018-10-05T14:23:43.959Z,1.30
2018-10-05T14:26:16.098Z,1.20
2018-10-05T14:28:46.453Z,1.10
2018-10-05T14:31:15.421Z,1.05
2018-10-05T14:33:44.256Z,1.20
2018-10-05T14:36:13.939Z,1.37
2018-10-05T14:38:43.383Z,1.50
2018-10-05T14:46:57.368Z,1.40
2018-10-05T14:49:26.499Z,1.05
2018-10-05T14:51:54.973Z,1.27
2018-10-05T14:54:24.563Z,1.67
2018-10-05T14:56:53.173Z,1.47
2018-10-05T14:59:21.760Z,1.37
2018-10-05T15:07:36.149Z,1.50
2018-10-05T15:10:04.620Z,1.40
2018-10-05T15:12:35.566Z,1.45
2018-10-05T15:15:04.246Z,2.02
2018-10-05T15:22:25.771Z,1.07
2018-10-05T15:24:54.764Z,1.50
2018-10-05T15:27:25.563Z,1.27
2018-10-05T15:29:54.431Z,1.45
2018-10-05T15:32:24.013Z,1.60
2018-10-05T15:34:52.658Z,1.95
2018-10-05T15:37:21.076Z,1.80
2018-10-05T15:39:49.412Z,1.40
2018-10-05T15:42:17.629Z,1.70
2018-10-05T15:44:46.074Z,1.90
2018-10-05T15:47:19.345Z,1.93
2018-10-05T15:49:48.689Z,1.20
2018-10-05T15:52:17.232Z,1.45
2018-10-05T15:57:29.672Z,1.60
2018-10-05T15:59:57.894Z,1.60
2018-10-05T16:02:26.108Z,1.40
2018-10-05T16:04:54.315Z,1.33
2018-10-05T16:07:22.621Z,1.50
2018-10-05T16:09:50.990Z,1.63
2018-10-05T16:12:19.315Z,1.90
2018-10-05T16:14:48.624Z,1.77
2018-10-05T16:17:16.795Z,1.53
2018-10-05T16:19:45.081Z,2.20
2018-10-05T16:22:13.613Z,1.90
2018-10-05T16:24:43.690Z,2.25
2018-10-05T16:27:12.920Z,2.27
2018-10-05T16:29:42.771Z,3.67
2018-10-05T16:32:11.546Z,2.53
2018-10-05T16:34:39.971Z,2.10
2018-10-05T16:37:08.266Z,2.40
2018-10-05T16:39:36.474Z,2.20
2018-10-05T16:42:04.914Z,1.93
2018-10-05T16:44:33.162Z,2.13
2018-10-05T16:47:01.454Z,1.67
2018-10-05T16:49:29.730Z,2.20
2018-10-05T16:51:58.001Z,2.50
2018-10-05T16:54:26.196Z,1.90
2018-10-05T16:56:54.424Z,2.00
2018-10-05T16:59:22.889Z,2.43
2018-10-05T17:01:51.278Z,1.73
2018-10-05T17:04:20.090Z,2.20
2018-10-05T17:09:28.081Z,2.10
2018-10-05T17:11:56.404Z,2.27
2018-10-05T17:14:24.995Z,2.57
2018-10-05T17:16:53.377Z,2.47
2018-10-05T17:19:21.578Z,2.57
2018-10-05T17:21:49.915Z,2.90
2018-10-05T17:24:18.107Z,3.00
2018-10-05T17:26:46.446Z,3.30
2018-10-05T17:29:14.673Z,3.03
2018-10-05T17:31:43.106Z,3.00
2018-10-05T17:34:11.305Z,3.07
2018-10-05T17:36:39.590Z,2.70
2018-10-05T17:39:09.388Z,2.60
2018-10-05T17:41:38.505Z,3.03
2018-10-05T17:44:06.918Z,2.97
2018-10-05T17:46:35.395Z,2.97
2018-10-05T17:49:04.389Z,2.90
2018-10-05T17:51:34.912Z,2.80
2018-10-05T17:54:03.363Z,2.77
2018-10-05T17:56:31.668Z,3.10
2018-10-05T17:59:00.071Z,3.13
2018-10-05T18:01:28.371Z,3.23
2018-10-05T18:03:56.710Z,2.97
2018-10-05T18:06:25.011Z,3.57
2018-10-05T18:08:53.357Z,3.60
2018-10-05T18:11:21.658Z,3.30
2018-10-05T18:13:50.232Z,3.47
2018-10-05T18:16:19.359Z,3.40
2018-10-05T18:18:48.182Z,3.50
2018-10-05T18:21:23.645Z,3.37
2018-10-05T18:23:51.893Z,3.60
2018-10-05T18:26:20.170Z,4.23
2018-10-05T18:28:48.470Z,4.33
2018-10-05T18:31:17.135Z,3.70
2018-10-05T18:33:45.490Z,3.55
2018-10-05T18:36:14.067Z,4.60
2018-10-05T18:38:45.441Z,3.90
2018-10-05T18:41:16.221Z,4.53
2018-10-05T18:46:33.338Z,4.10
2018-10-05T18:49:02.093Z,3.95
2018-10-05T18:51:30.367Z,4.27
2018-10-05T18:54:05.318Z,3.40
2018-10-05T18:56:45.111Z,4.47
2018-10-05T18:59:19.071Z,3.75
2018-10-05T19:01:47.279Z,4.07
2018-10-05T19:04:15.629Z,4.07
2018-10-05T19:06:43.976Z,4.17
2018-10-05T19:09:13.555Z,4.13
2018-10-05T19:11:42.122Z,3.50
2018-10-05T19:14:10.630Z,4.10
2018-10-05T19:16:39.000Z,4.47
2018-10-05T19:19:08.503Z,4.50
2018-10-05T19:21:36.815Z,4.50
2018-10-05T19:24:05.177Z,4.00
2018-10-05T19:26:33.897Z,3.83
2018-10-05T19:29:02.480Z,4.13
2018-10-05T19:31:32.326Z,4.28
2018-10-05T19:34:00.765Z,3.87
2018-10-05T19:36:29.349Z,3.63
2018-10-05T19:38:57.862Z,4.03
2018-10-05T19:41:27.303Z,3.73
2018-10-05T19:43:55.609Z,3.67
2018-10-05T19:46:23.960Z,4.10
2018-10-05T19:48:52.338Z,3.92
2018-10-05T19:51:20.702Z,8.10
2018-10-05T19:53:49.105Z,3.60
2018-10-05T19:56:18.384Z,3.80
2018-10-05T19:58:48.852Z,3.40
2018-10-05T20:01:17.551Z,3.50
2018-10-05T20:03:46.024Z,3.60
2018-10-05T20:06:14.356Z,3.47
2018-10-05T20:08:42.682Z,3.30
2018-10-05T20:11:11.131Z,3.40
2018-10-05T20:13:39.748Z,3.73
2018-10-05T20:16:09.450Z,3.40
2018-10-05T20:18:39.248Z,4.00
2018-10-05T20:21:07.899Z,3.93
2018-10-05T20:23:43.952Z,4.30
2018-10-05T20:26:12.412Z,3.60
2018-10-05T20:28:41.918Z,3.87
2018-10-05T20:31:11.750Z,3.50
2018-10-05T20:33:41.385Z,3.77
2018-10-05T20:36:09.886Z,3.40
2018-10-05T20:38:45.145Z,3.77
2018-10-05T20:41:13.709Z,3.87
2018-10-05T20:43:42.220Z,4.00
2018-10-05T20:46:10.461Z,4.37
2018-10-05T20:48:38.857Z,3.77
2018-10-05T20:51:07.117Z,4.03
2018-10-05T20:53:35.384Z,3.40
2018-10-05T20:56:03.801Z,4.10
2018-10-05T20:58:33.157Z,4.03
2018-10-05T21:01:01.473Z,3.77
2018-10-05T21:03:29.712Z,4.47
2018-10-05T21:05:58.077Z,3.70
2018-10-05T21:08:26.617Z,3.77
2018-10-05T21:10:54.877Z,4.23
2018-10-05T21:13:23.046Z,4.23
2018-10-05T21:15:51.355Z,4.20
2018-10-05T21:18:19.706Z,4.42
2018-10-05T21:20:48.221Z,4.83
2018-10-05T21:23:17.461Z,4.60
2018-10-05T21:25:45.672Z,4.73
2018-10-05T21:28:14.845Z,4.53
2018-10-05T21:30:43.226Z,4.80
2018-10-05T21:33:11.531Z,4.40
2018-10-05T21:35:41.450Z,4.03
2018-10-05T21:38:09.937Z,5.10
2018-10-05T21:40:38.192Z,4.62
2018-10-05T21:43:06.597Z,5.27
2018-10-05T21:45:35.081Z,4.73
2018-10-05T21:48:03.251Z,4.40
2018-10-05T21:50:31.620Z,4.80
2018-10-05T21:53:01.002Z,4.27
2018-10-05T21:55:29.509Z,4.80
2018-10-05T21:57:57.768Z,4.60
2018-10-05T22:00:29.726Z,4.70
2018-10-05T22:02:58.021Z,4.83
2018-10-05T22:05:26.305Z,4.67
2018-10-05T22:07:54.549Z,4.63
2018-10-05T22:10:22.913Z,4.80
2018-10-05T22:12:52.242Z,5.10
2018-10-05T22:15:20.779Z,5.10
2018-10-05T22:17:50.196Z,5.40
2018-10-05T22:20:18.554Z,5.15
2018-10-05T22:22:49.003Z,5.30
2018-10-05T22:25:18.487Z,5.58
2018-10-05T22:27:46.785Z,5.33
2018-10-05T22:30:14.992Z,5.07
2018-10-05T22:32:43.308Z,5.30
2018-10-05T22:35:12.071Z,5.87
2018-10-05T22:37:40.982Z,6.13
2018-10-05T22:40:09.271Z,5.70
2018-10-05T22:42:44.010Z,5.20
2018-10-05T22:45:12.378Z,5.67
2018-10-05T22:47:40.682Z,5.77
2018-10-05T22:50:08.982Z,5.90
2018-10-05T22:52:37.138Z,5.30
2018-10-05T22:55:05.391Z,4.93
2018-10-05T22:57:33.565Z,4.90
2018-10-05T23:00:02.093Z,5.10
2018-10-05T23:02:30.306Z,5.30
2018-10-05T23:04:58.563Z,5.00
2018-10-05T23:07:26.758Z,5.20
2018-10-05T23:09:55.094Z,5.37
2018-10-05T23:12:23.520Z,5.57
2018-10-05T23:14:52.025Z,4.93
2018-10-05T23:17:20.476Z,5.17
2018-10-05T23:19:48.638Z,5.23
2018-10-05T23:22:16.849Z,5.05
2018-10-05T23:24:44.998Z,5.50
2018-10-05T23:27:14.938Z,4.85
2018-10-05T23:29:43.138Z,5.10
2018-10-05T23:32:11.398Z,5.00
2018-10-05T23:34:39.641Z,5.53
2018-10-05T23:37:07.799Z,5.70
2018-10-05T23:39:36.080Z,5.40
2018-10-05T23:42:04.305Z,5.00
2018-10-05T23:44:33.428Z,5.80
2018-10-05T23:47:01.869Z,5.75
2018-10-05T23:49:30.166Z,5.60
2018-10-05T23:52:04.486Z,6.10
2018-10-05T23:54:32.666Z,5.60
2018-10-05T23:57:01.090Z,6.00
2018-10-05T23:59:29.495Z,6.33
